createdAt,value
2023-01-07T10:29:39.118Z,9.50
2023-01-07T10:32:18.624Z,9.50
2023-01-07T10:34:55.892Z,9.50
2023-01-07T10:37:29.417Z,9.60
2023-01-07T10:40:40.159Z,9.60
2023-01-07T10:43:44.365Z,9.60
2023-01-07T10:46:31.104Z,9.70
2023-01-07T10:49:20.618Z,9.70
2023-01-07T10:52:02.799Z,9.70
2023-01-07T10:54:40.035Z,9.70
2023-01-07T10:57:16.699Z,9.70
2023-01-07T10:59:49.573Z,9.70
2023-01-07T11:02:22.665Z,9.70
2023-01-07T11:04:58.851Z,9.70
2023-01-07T11:07:46.858Z,9.80
2023-01-07T11:10:19.104Z,9.80
2023-01-07T11:13:14.174Z,9.80
2023-01-07T11:15:52.250Z,9.90
2023-01-07T11:18:21.750Z,9.90
2023-01-07T11:20:57.239Z,9.90
2023-01-07T11:23:37.619Z,9.90
2023-01-07T11:26:16.182Z,10.00
2023-01-07T11:28:58.136Z,10.00
2023-01-07T11:31:47.604Z,10.10
2023-01-07T11:34:27.216Z,10.10
2023-01-07T11:36:56.647Z,10.10
2023-01-07T11:39:36.152Z,10.10
2023-01-07T11:42:32.799Z,10.10
2023-01-07T11:45:14.063Z,10.10
2023-01-07T11:47:53.712Z,10.20
2023-01-07T11:50:26.938Z,10.10
2023-01-07T11:53:14.146Z,10.10
2023-01-07T11:55:59.423Z,10.10
2023-01-07T11:58:32.145Z,10.10
2023-01-07T12:01:21.378Z,10.10
2023-01-07T12:03:54.828Z,10.10
2023-01-07T12:06:24.170Z,10.10
2023-01-07T12:09:19.470Z,10.20
2023-01-07T12:11:50.072Z,10.20
2023-01-07T12:14:17.033Z,10.20
2023-01-07T12:16:45.373Z,10.20
2023-01-07T12:19:32.998Z,10.30
2023-01-07T12:22:23.889Z,10.40
2023-01-07T12:25:12.184Z,10.40
2023-01-07T12:27:49.184Z,10.30
2023-01-07T12:30:37.223Z,10.30
2023-01-07T12:33:19.277Z,10.30
2023-01-07T12:35:46.633Z,10.30
2023-01-07T12:38:26.741Z,10.30
2023-01-07T12:41:10.886Z,10.40
2023-01-07T12:43:48.529Z,10.40
2023-01-07T12:46:20.240Z,10.30
2023-01-07T12:49:27.565Z,10.30
2023-01-07T12:52:00.861Z,10.40
2023-01-07T12:54:27.702Z,10.40
2023-01-07T12:57:03.770Z,10.40
2023-01-07T12:59:46.019Z,10.40
2023-01-07T13:02:24.840Z,10.40
2023-01-07T13:05:10.227Z,10.50
2023-01-07T13:07:47.522Z,10.50
2023-01-07T13:10:46.704Z,10.50
2023-01-07T13:13:46.168Z,10.50
2023-01-07T13:16:13.618Z,10.50
2023-01-07T13:18:40.817Z,10.50
2023-01-07T13:21:14.721Z,10.50
2023-01-07T13:23:53.234Z,10.50
2023-01-07T13:26:30.947Z,10.50
2023-01-07T13:29:00.116Z,10.60
2023-01-07T13:31:29.873Z,10.60
2023-01-07T13:34:38.165Z,10.60
2023-01-07T13:37:41.395Z,10.60
2023-01-07T13:40:35.416Z,10.60
2023-01-07T13:43:09.772Z,10.60
2023-01-07T13:45:37.720Z,10.50
2023-01-07T13:48:16.670Z,10.50
2023-01-07T13:51:02.461Z,10.50
2023-01-07T13:53:34.303Z,10.50
2023-01-07T13:56:21.545Z,10.50
2023-01-07T13:58:49.788Z,10.50
2023-01-07T14:01:23.949Z,10.40
2023-01-07T14:03:54.147Z,10.40
2023-01-07T14:06:21.269Z,10.40
2023-01-07T14:08:52.987Z,10.40
2023-01-07T14:11:30.491Z,10.30
2023-01-07T14:14:28.944Z,10.30
2023-01-07T14:17:17.737Z,10.30
2023-01-07T14:19:48.078Z,10.30
2023-01-07T14:22:31.699Z,10.30
2023-01-07T14:25:13.023Z,10.30
2023-01-07T14:27:55.125Z,10.20
2023-01-07T14:30:28.149Z,10.20
2023-01-07T14:33:17.278Z,10.10
2023-01-07T14:35:57.108Z,10.00
2023-01-07T14:38:27.011Z,9.90
2023-01-07T14:41:09.640Z,9.80
2023-01-07T14:43:45.823Z,9.80
2023-01-07T14:46:28.143Z,9.70
2023-01-07T14:49:04.015Z,9.70
2023-01-07T14:51:57.662Z,9.60
2023-01-07T14:54:46.242Z,9.50
2023-01-07T14:57:22.308Z,9.50
2023-01-07T15:00:11.882Z,9.50
2023-01-07T15:03:14.313Z,9.40
2023-01-07T15:06:16.668Z,9.30
2023-01-07T15:09:10.594Z,9.20
2023-01-07T15:12:00.490Z,9.10
2023-01-07T15:15:27.918Z,9.00
2023-01-07T15:17:58.067Z,8.90
2023-01-07T15:20:38.212Z,8.70
2023-01-07T15:23:24.580Z,8.70
2023-01-07T15:26:20.980Z,8.70
2023-01-07T15:29:23.612Z,8.60
2023-01-07T15:32:26.240Z,8.50
2023-01-07T15:34:54.150Z,8.40
2023-01-07T15:37:27.559Z,8.20
2023-01-07T15:39:58.223Z,8.10
2023-01-07T15:42:27.374Z,8.00
2023-01-07T15:44:59.298Z,7.90
2023-01-07T15:47:43.814Z,7.80
2023-01-07T15:50:34.953Z,7.60
2023-01-07T15:53:17.082Z,7.40
2023-01-07T15:55:59.904Z,7.30
2023-01-07T15:58:48.960Z,7.10
2023-01-07T16:01:17.963Z,7.00
2023-01-07T16:03:48.145Z,6.90
2023-01-07T16:06:45.474Z,6.80
2023-01-07T16:09:21.627Z,6.80
2023-01-07T16:11:48.805Z,6.70
2023-01-07T16:14:19.802Z,6.70
2023-01-07T16:16:47.062Z,6.60
2023-01-07T16:19:18.585Z,6.50
2023-01-07T16:21:57.110Z,6.50
2023-01-07T16:24:24.350Z,6.50
2023-01-07T16:26:59.292Z,6.40
2023-01-07T16:29:39.451Z,6.40
2023-01-07T16:32:07.427Z,6.30
2023-01-07T16:34:34.514Z,6.30
2023-01-07T16:37:06.037Z,6.40
2023-01-07T16:39:41.405Z,6.20
2023-01-07T16:42:23.265Z,6.10
2023-01-07T16:44:54.468Z,6.10
2023-01-07T16:47:25.747Z,6.00
2023-01-07T16:50:21.081Z,6.10
2023-01-07T16:52:53.704Z,6.10
2023-01-07T16:55:46.679Z,6.00
2023-01-07T16:58:30.343Z,6.00
2023-01-07T17:01:00.340Z,5.90
2023-01-07T17:03:29.609Z,5.80
2023-01-07T17:06:09.087Z,5.80
2023-01-07T17:08:36.619Z,5.80
2023-01-07T17:11:17.687Z,5.70
2023-01-07T17:13:47.000Z,5.70
2023-01-07T17:16:29.285Z,5.60
2023-01-07T17:18:57.877Z,5.50
2023-01-07T17:21:42.900Z,5.50
2023-01-07T17:24:28.664Z,5.50
2023-01-07T17:26:59.447Z,5.50
2023-01-07T17:29:39.451Z,5.50
2023-01-07T17:32:06.788Z,5.50
2023-01-07T17:34:38.415Z,5.50
2023-01-07T17:37:05.764Z,5.50
2023-01-07T17:39:35.069Z,5.50
2023-01-07T17:42:20.501Z,5.40
2023-01-07T17:44:48.672Z,5.30
2023-01-07T17:47:15.897Z,5.20
2023-01-07T17:49:45.370Z,5.10
2023-01-07T17:52:12.344Z,5.10
2023-01-07T17:54:40.355Z,5.00
2023-01-07T17:57:11.294Z,4.90
2023-01-07T17:59:38.350Z,4.80
2023-01-07T18:02:20.498Z,4.70
2023-01-07T18:04:49.670Z,4.70
2023-01-07T18:07:19.763Z,4.70
2023-01-07T18:09:47.098Z,4.60
2023-01-07T18:12:33.239Z,4.60
2023-01-07T18:15:02.207Z,4.60
2023-01-07T18:17:29.963Z,4.50
2023-01-07T18:19:59.644Z,4.40
2023-01-07T18:22:29.165Z,4.30
2023-01-07T18:24:56.232Z,4.30
2023-01-07T18:27:23.234Z,4.20
2023-01-07T18:29:53.263Z,4.10
2023-01-07T18:32:22.767Z,4.10
2023-01-07T18:34:52.291Z,4.10
2023-01-07T18:37:22.670Z,4.10
2023-01-07T18:39:52.080Z,4.00
2023-01-07T18:42:21.719Z,3.90
2023-01-07T18:44:48.901Z,3.80
2023-01-07T18:47:15.964Z,3.80
2023-01-07T18:49:45.415Z,3.80
2023-01-07T18:52:13.505Z,3.70
2023-01-07T18:54:41.353Z,3.70
2023-01-07T18:57:08.500Z,3.70
2023-01-07T18:59:38.014Z,3.70
2023-01-07T19:02:06.677Z,3.70
2023-01-07T19:04:37.467Z,3.60
2023-01-07T19:07:04.502Z,3.50
2023-01-07T19:09:31.656Z,3.50
2023-01-07T19:12:04.117Z,3.40
2023-01-07T19:14:31.116Z,3.30
2023-01-07T19:16:58.117Z,3.20
2023-01-07T19:19:32.045Z,3.30
2023-01-07T19:22:04.228Z,3.30
2023-01-07T19:24:31.335Z,3.40
2023-01-07T19:27:00.979Z,3.50
2023-01-07T19:29:30.430Z,3.50
2023-01-07T19:31:57.373Z,3.50
2023-01-07T19:34:25.541Z,3.50
2023-01-07T19:36:52.603Z,3.60
2023-01-07T19:39:23.901Z,3.60
2023-01-07T19:41:51.766Z,3.60
2023-01-07T19:44:19.024Z,3.60
2023-01-07T19:46:48.749Z,3.60
2023-01-07T19:49:15.759Z,3.50
2023-01-07T19:51:44.226Z,3.40
2023-01-07T19:54:16.300Z,3.40
2023-01-07T19:56:46.207Z,3.40
2023-01-07T19:59:15.963Z,3.30
2023-01-07T20:01:49.617Z,3.20
2023-01-07T20:04:16.977Z,3.20
2023-01-07T20:06:47.892Z,3.20
2023-01-07T20:09:14.960Z,3.10
2023-01-07T20:11:44.823Z,3.10
2023-01-07T20:14:14.731Z,3.10
2023-01-07T20:16:44.780Z,3.10
2023-01-07T20:19:12.507Z,3.10
2023-01-07T20:21:40.076Z,3.10
2023-01-07T20:24:07.696Z,3.10
2023-01-07T20:26:35.545Z,3.00
2023-01-07T20:29:05.150Z,3.00
2023-01-07T20:31:32.166Z,3.00
2023-01-07T20:34:00.127Z,3.00
2023-01-07T20:36:30.053Z,3.00
2023-01-07T20:38:57.535Z,3.00
2023-01-07T20:41:27.909Z,3.10
2023-01-07T20:44:00.172Z,3.00
2023-01-07T20:46:31.509Z,3.00
2023-01-07T20:49:01.037Z,3.00
2023-01-07T20:51:28.108Z,3.00
2023-01-07T20:53:55.203Z,3.00
2023-01-07T20:56:26.265Z,3.10
2023-01-07T20:58:53.355Z,3.00
2023-01-07T21:02:13.243Z,3.00
2023-01-07T21:04:43.117Z,3.00
2023-01-07T21:07:10.425Z,2.90
2023-01-07T21:09:44.847Z,2.90
2023-01-07T21:12:13.899Z,2.90
2023-01-07T21:14:43.397Z,2.90
2023-01-07T21:17:10.311Z,2.80
2023-01-07T21:19:39.689Z,2.80
2023-01-07T21:22:09.131Z,2.70
2023-01-07T21:24:39.141Z,2.70
2023-01-07T21:27:06.147Z,2.60
2023-01-07T21:29:33.209Z,2.50
2023-01-07T21:32:01.018Z,2.50
2023-01-07T21:34:28.151Z,2.30
2023-01-07T21:36:55.148Z,2.30
2023-01-07T21:39:22.224Z,2.30
2023-01-07T21:41:49.237Z,2.20
2023-01-07T21:44:16.410Z,2.20
2023-01-07T21:46:46.247Z,2.10
2023-01-07T21:49:19.065Z,2.10
2023-01-07T21:51:50.055Z,2.00
2023-01-07T21:54:17.307Z,2.00
2023-01-07T21:56:47.273Z,2.10
2023-01-07T21:59:14.299Z,2.00
2023-01-07T22:01:41.486Z,2.00
2023-01-07T22:04:08.547Z,1.90
2023-01-07T22:06:36.051Z,1.90
2023-01-07T22:09:06.994Z,1.90
2023-01-07T22:11:38.694Z,1.80
2023-01-07T22:14:12.925Z,1.70
2023-01-07T22:16:39.996Z,1.70
2023-01-07T22:19:07.565Z,1.70
2023-01-07T22:21:34.693Z,1.70
2023-01-07T22:24:01.725Z,1.60
2023-01-07T22:26:28.847Z,1.60
2023-01-07T22:28:59.809Z,1.60
2023-01-07T22:31:33.444Z,1.70
2023-01-07T22:34:03.379Z,1.70
2023-01-07T22:36:47.645Z,1.70
2023-01-07T22:39:33.489Z,1.70
2023-01-07T22:42:10.209Z,1.60
2023-01-07T22:44:45.352Z,1.60
2023-01-07T22:47:17.338Z,1.60
2023-01-07T22:49:48.427Z,1.60
2023-01-07T22:52:18.305Z,1.60
2023-01-07T22:54:51.147Z,1.60
2023-01-07T22:57:18.541Z,1.60
2023-01-07T22:59:47.881Z,1.60
2023-01-07T23:02:17.353Z,1.70
2023-01-07T23:04:44.311Z,1.60
2023-01-07T23:07:18.543Z,1.60
2023-01-07T23:09:50.710Z,1.60
2023-01-07T23:12:20.593Z,1.60
2023-01-07T23:14:47.648Z,1.50
2023-01-07T23:17:17.258Z,1.50
2023-01-07T23:19:45.700Z,1.40
2023-01-07T23:22:12.966Z,1.40
2023-01-07T23:24:39.903Z,1.40
2023-01-07T23:27:06.850Z,1.40
2023-01-07T23:29:36.332Z,1.40
2023-01-07T23:32:03.348Z,1.30
2023-01-07T23:34:34.058Z,1.40
2023-01-07T23:37:00.973Z,1.30
2023-01-07T23:39:30.201Z,1.30
2023-01-07T23:42:00.047Z,1.30
2023-01-07T23:44:27.150Z,1.40
2023-01-07T23:46:54.122Z,1.40
2023-01-07T23:49:25.390Z,1.30
2023-01-07T23:51:55.185Z,1.30
2023-01-07T23:54:23.908Z,1.30
2023-01-07T23:56:51.770Z,1.30
2023-01-07T23:59:20.979Z,1.30
